sensor_id;sensor_type;location;lat;lon;timestamp;pressure;altitude;pressure_sealevel;temperature;humidity
62864;BME280;48954;59.950;11.014;2022-12-20T00:02:11;98766.80;;;-2.34;88.12
62864;BME280;48954;59.950;11.014;2022-12-20T00:04:38;98752.01;;;-2.35;88.17
62864;BME280;48954;59.950;11.014;2022-12-20T00:07:05;98738.57;;;-2.37;88.22
62864;BME280;48954;59.950;11.014;2022-12-20T00:09:32;98734.31;;;-2.40;88.18
62864;BME280;48954;59.950;11.014;2022-12-20T00:12:03;98732.30;;;-2.41;88.33
62864;BME280;48954;59.950;11.014;2022-12-20T00:14:31;98737.21;;;-2.42;88.30
62864;BME280;48954;59.950;11.014;2022-12-20T00:16:58;98732.58;;;-2.42;88.42
62864;BME280;48954;59.950;11.014;2022-12-20T00:19:27;98734.86;;;-2.43;88.33
62864;BME280;48954;59.950;11.014;2022-12-20T00:21:58;98736.73;;;-2.45;88.45
62864;BME280;48954;59.950;11.014;2022-12-20T00:24:25;98722.49;;;-2.45;88.41
62864;BME280;48954;59.950;11.014;2022-12-20T00:26:52;98722.17;;;-2.45;88.50
62864;BME280;48954;59.950;11.014;2022-12-20T00:29:23;98712.98;;;-2.46;88.63
62864;BME280;48954;59.950;11.014;2022-12-20T00:31:53;98705.80;;;-2.45;88.59
62864;BME280;48954;59.950;11.014;2022-12-20T00:34:22;98707.94;;;-2.43;88.53
62864;BME280;48954;59.950;11.014;2022-12-20T00:36:51;98710.02;;;-2.42;88.62
62864;BME280;48954;59.950;11.014;2022-12-20T00:39:22;98711.47;;;-2.42;88.64
62864;BME280;48954;59.950;11.014;2022-12-20T00:41:50;98709.40;;;-2.43;88.68
62864;BME280;48954;59.950;11.014;2022-12-20T00:44:19;98712.00;;;-2.45;88.58
62864;BME280;48954;59.950;11.014;2022-12-20T00:46:47;98714.94;;;-2.46;88.54
62864;BME280;48954;59.950;11.014;2022-12-20T00:49:13;98714.08;;;-2.46;88.59
62864;BME280;48954;59.950;11.014;2022-12-20T00:51:40;98703.23;;;-2.47;88.54
62864;BME280;48954;59.950;11.014;2022-12-20T00:54:09;98697.02;;;-2.46;88.61
62864;BME280;48954;59.950;11.014;2022-12-20T00:56:37;98690.55;;;-2.46;88.84
62864;BME280;48954;59.950;11.014;2022-12-20T00:59:04;98690.58;;;-2.45;88.69
62864;BME280;48954;59.950;11.014;2022-12-20T01:01:32;98684.14;;;-2.44;88.64
62864;BME280;48954;59.950;11.014;2022-12-20T01:03:59;98682.99;;;-2.43;88.69
62864;BME280;48954;59.950;11.014;2022-12-20T01:06:26;98674.41;;;-2.42;88.74
62864;BME280;48954;59.950;11.014;2022-12-20T01:08:54;98674.38;;;-2.40;88.73
62864;BME280;48954;59.950;11.014;2022-12-20T01:11:24;98669.08;;;-2.39;88.86
62864;BME280;48954;59.950;11.014;2022-12-20T01:13:55;98668.41;;;-2.38;88.68
62864;BME280;48954;59.950;11.014;2022-12-20T01:16:28;98665.33;;;-2.37;88.67
62864;BME280;48954;59.950;11.014;2022-12-20T01:18:58;98665.89;;;-2.35;88.72
62864;BME280;48954;59.950;11.014;2022-12-20T01:21:26;98662.49;;;-2.35;88.81
62864;BME280;48954;59.950;11.014;2022-12-20T01:23:53;98663.48;;;-2.34;88.94
62864;BME280;48954;59.950;11.014;2022-12-20T01:26:26;98658.27;;;-2.32;88.77
62864;BME280;48954;59.950;11.014;2022-12-20T01:28:58;98650.05;;;-2.31;88.83
62864;BME280;48954;59.950;11.014;2022-12-20T01:31:27;98639.20;;;-2.30;88.82
62864;BME280;48954;59.950;11.014;2022-12-20T01:33:54;98627.86;;;-2.28;88.79
62864;BME280;48954;59.950;11.014;2022-12-20T01:36:23;98632.38;;;-2.27;88.80
62864;BME280;48954;59.950;11.014;2022-12-20T01:38:56;98638.27;;;-2.26;88.69
62864;BME280;48954;59.950;11.014;2022-12-20T01:41:24;98636.84;;;-2.27;88.72
62864;BME280;48954;59.950;11.014;2022-12-20T01:43:55;98647.88;;;-2.27;88.78
62864;BME280;48954;59.950;11.014;2022-12-20T01:46:24;98656.29;;;-2.28;88.78
62864;BME280;48954;59.950;11.014;2022-12-20T01:51:28;98645.89;;;-2.28;88.89
62864;BME280;48954;59.950;11.014;2022-12-20T01:54:07;98639.65;;;-2.28;88.82
62864;BME280;48954;59.950;11.014;2022-12-20T01:56:52;98631.69;;;-2.26;89.04
62864;BME280;48954;59.950;11.014;2022-12-20T01:59:20;98623.51;;;-2.24;88.96
62864;BME280;48954;59.950;11.014;2022-12-20T02:01:48;98610.40;;;-2.22;89.15
62864;BME280;48954;59.950;11.014;2022-12-20T02:04:21;98604.67;;;-2.20;89.08
62864;BME280;48954;59.950;11.014;2022-12-20T02:06:49;98600.08;;;-2.17;89.28
62864;BME280;48954;59.950;11.014;2022-12-20T02:09:15;98593.45;;;-2.14;89.19
62864;BME280;48954;59.950;11.014;2022-12-20T02:15:05;98580.80;;;-2.09;89.11
62864;BME280;48954;59.950;11.014;2022-12-20T02:18:05;98580.93;;;-2.08;89.12
62864;BME280;48954;59.950;11.014;2022-12-20T02:32:13;98577.68;;;-2.06;89.32
62864;BME280;48954;59.950;11.014;2022-12-20T02:34:42;98568.01;;;-2.04;89.13
62864;BME280;48954;59.950;11.014;2022-12-20T02:37:09;98566.96;;;-2.04;89.21
62864;BME280;48954;59.950;11.014;2022-12-20T02:39:39;98561.03;;;-2.01;89.25
62864;BME280;48954;59.950;11.014;2022-12-20T02:42:10;98555.64;;;-1.98;89.24
62864;BME280;48954;59.950;11.014;2022-12-20T02:44:42;98549.13;;;-1.96;89.27
62864;BME280;48954;59.950;11.014;2022-12-20T02:47:13;98545.42;;;-1.95;89.14
62864;BME280;48954;59.950;11.014;2022-12-20T02:49:48;98533.67;;;-1.95;89.18
62864;BME280;48954;59.950;11.014;2022-12-20T02:52:16;98530.08;;;-1.93;89.15
62864;BME280;48954;59.950;11.014;2022-12-20T02:54:44;98528.88;;;-1.95;89.08
62864;BME280;48954;59.950;11.014;2022-12-20T02:59:56;98514.77;;;-1.95;89.17
62864;BME280;48954;59.950;11.014;2022-12-20T03:02:24;98518.91;;;-1.94;89.19
62864;BME280;48954;59.950;11.014;2022-12-20T03:04:52;98526.81;;;-1.93;89.16
62864;BME280;48954;59.950;11.014;2022-12-20T03:07:20;98533.04;;;-1.91;89.19
62864;BME280;48954;59.950;11.014;2022-12-20T03:09:47;98528.59;;;-1.93;89.11
62864;BME280;48954;59.950;11.014;2022-12-20T03:12:14;98520.50;;;-1.93;89.06
62864;BME280;48954;59.950;11.014;2022-12-20T03:14:41;98523.02;;;-1.92;89.24
62864;BME280;48954;59.950;11.014;2022-12-20T03:17:08;98521.00;;;-1.90;89.17
62864;BME280;48954;59.950;11.014;2022-12-20T03:19:34;98528.67;;;-1.91;89.06
62864;BME280;48954;59.950;11.014;2022-12-20T03:22:01;98526.41;;;-1.91;89.03
62864;BME280;48954;59.950;11.014;2022-12-20T03:24:28;98528.94;;;-1.93;88.98
62864;BME280;48954;59.950;11.014;2022-12-20T03:26:55;98527.83;;;-1.96;89.06
62864;BME280;48954;59.950;11.014;2022-12-20T03:29:21;98531.30;;;-1.97;89.03
62864;BME280;48954;59.950;11.014;2022-12-20T03:31:48;98530.91;;;-1.98;89.05
62864;BME280;48954;59.950;11.014;2022-12-20T03:34:14;98520.85;;;-1.99;89.16
62864;BME280;48954;59.950;11.014;2022-12-20T03:36:41;98516.20;;;-1.99;89.19
62864;BME280;48954;59.950;11.014;2022-12-20T03:39:08;98516.46;;;-1.98;89.05
62864;BME280;48954;59.950;11.014;2022-12-20T03:41:34;98509.91;;;-1.97;89.18
62864;BME280;48954;59.950;11.014;2022-12-20T03:44:01;98505.23;;;-1.95;89.29
62864;BME280;48954;59.950;11.014;2022-12-20T03:46:28;98499.71;;;-1.94;89.17
62864;BME280;48954;59.950;11.014;2022-12-20T03:48:55;98489.95;;;-1.92;89.15
62864;BME280;48954;59.950;11.014;2022-12-20T03:51:21;98491.60;;;-1.92;89.19
62864;BME280;48954;59.950;11.014;2022-12-20T03:53:48;98488.44;;;-1.91;89.20
62864;BME280;48954;59.950;11.014;2022-12-20T03:56:16;98478.30;;;-1.90;89.18
62864;BME280;48954;59.950;11.014;2022-12-20T03:58:42;98471.69;;;-1.88;89.27
62864;BME280;48954;59.950;11.014;2022-12-20T04:01:28;98472.62;;;-1.87;89.32
62864;BME280;48954;59.950;11.014;2022-12-20T04:03:55;98455.14;;;-1.84;89.33
62864;BME280;48954;59.950;11.014;2022-12-20T04:06:22;98455.80;;;-1.81;89.34
62864;BME280;48954;59.950;11.014;2022-12-20T04:08:50;98459.84;;;-1.78;89.33
62864;BME280;48954;59.950;11.014;2022-12-20T04:11:16;98454.52;;;-1.77;89.39
62864;BME280;48954;59.950;11.014;2022-12-20T04:13:44;98441.98;;;-1.75;89.36
62864;BME280;48954;59.950;11.014;2022-12-20T04:16:12;98430.67;;;-1.74;89.29
62864;BME280;48954;59.950;11.014;2022-12-20T04:18:39;98431.34;;;-1.73;89.19
62864;BME280;48954;59.950;11.014;2022-12-20T04:21:06;98434.68;;;-1.72;89.25
62864;BME280;48954;59.950;11.014;2022-12-20T04:23:35;98432.27;;;-1.73;89.20
62864;BME280;48954;59.950;11.014;2022-12-20T04:26:03;98429.88;;;-1.72;89.26
62864;BME280;48954;59.950;11.014;2022-12-20T04:28:30;98427.33;;;-1.71;89.29
62864;BME280;48954;59.950;11.014;2022-12-20T04:30:57;98429.95;;;-1.71;89.29
62864;BME280;48954;59.950;11.014;2022-12-20T04:33:25;98428.90;;;-1.72;89.27
62864;BME280;48954;59.950;11.014;2022-12-20T04:35:52;98431.23;;;-1.73;89.17
62864;BME280;48954;59.950;11.014;2022-12-20T04:38:20;98427.02;;;-1.74;89.20
62864;BME280;48954;59.950;11.014;2022-12-20T04:40:49;98424.10;;;-1.74;89.18
62864;BME280;48954;59.950;11.014;2022-12-20T04:43:16;98421.09;;;-1.74;89.32
62864;BME280;48954;59.950;11.014;2022-12-20T04:45:46;98424.14;;;-1.73;89.28
62864;BME280;48954;59.950;11.014;2022-12-20T04:48:13;98423.58;;;-1.72;89.27
62864;BME280;48954;59.950;11.014;2022-12-20T04:50:41;98417.02;;;-1.71;89.26
62864;BME280;48954;59.950;11.014;2022-12-20T04:53:10;98409.80;;;-1.69;89.31
62864;BME280;48954;59.950;11.014;2022-12-20T04:55:38;98399.89;;;-1.68;89.35
62864;BME280;48954;59.950;11.014;2022-12-20T04:58:05;98401.19;;;-1.67;89.23
62864;BME280;48954;59.950;11.014;2022-12-20T05:00:33;98401.48;;;-1.65;89.20
62864;BME280;48954;59.950;11.014;2022-12-20T05:03:01;98399.36;;;-1.65;89.35
62864;BME280;48954;59.950;11.014;2022-12-20T05:05:28;98400.19;;;-1.64;89.34
62864;BME280;48954;59.950;11.014;2022-12-20T05:07:55;98402.98;;;-1.63;89.21
62864;BME280;48954;59.950;11.014;2022-12-20T05:10:22;98404.88;;;-1.64;89.24
62864;BME280;48954;59.950;11.014;2022-12-20T05:12:48;98395.86;;;-1.65;89.06
62864;BME280;48954;59.950;11.014;2022-12-20T05:15:15;98396.89;;;-1.65;89.27
62864;BME280;48954;59.950;11.014;2022-12-20T05:17:42;98397.02;;;-1.64;89.31
62864;BME280;48954;59.950;11.014;2022-12-20T05:20:09;98401.71;;;-1.64;89.28
62864;BME280;48954;59.950;11.014;2022-12-20T05:22:35;98407.83;;;-1.65;89.25
62864;BME280;48954;59.950;11.014;2022-12-20T05:25:03;98406.30;;;-1.65;89.26
62864;BME280;48954;59.950;11.014;2022-12-20T05:27:30;98397.24;;;-1.64;89.25
62864;BME280;48954;59.950;11.014;2022-12-20T05:30:01;98395.08;;;-1.64;89.32
62864;BME280;48954;59.950;11.014;2022-12-20T05:32:28;98394.08;;;-1.63;89.31
62864;BME280;48954;59.950;11.014;2022-12-20T05:34:55;98390.17;;;-1.62;89.26
62864;BME280;48954;59.950;11.014;2022-12-20T05:37:21;98393.96;;;-1.61;89.31
62864;BME280;48954;59.950;11.014;2022-12-20T05:39:48;98393.36;;;-1.60;89.27
62864;BME280;48954;59.950;11.014;2022-12-20T05:42:14;98391.05;;;-1.59;89.34
62864;BME280;48954;59.950;11.014;2022-12-20T05:44:41;98385.29;;;-1.57;89.37
62864;BME280;48954;59.950;11.014;2022-12-20T05:47:08;98384.61;;;-1.55;89.36
62864;BME280;48954;59.950;11.014;2022-12-20T05:49:34;98386.95;;;-1.54;89.49
62864;BME280;48954;59.950;11.014;2022-12-20T05:52:01;98393.02;;;-1.53;89.37
62864;BME280;48954;59.950;11.014;2022-12-20T05:54:28;98390.10;;;-1.52;89.31
62864;BME280;48954;59.950;11.014;2022-12-20T05:56:55;98393.09;;;-1.51;89.36
62864;BME280;48954;59.950;11.014;2022-12-20T05:59:21;98386.95;;;-1.49;89.40
62864;BME280;48954;59.950;11.014;2022-12-20T06:01:48;98384.63;;;-1.50;89.40
62864;BME280;48954;59.950;11.014;2022-12-20T06:04:14;98381.89;;;-1.47;89.29
62864;BME280;48954;59.950;11.014;2022-12-20T06:06:41;98379.22;;;-1.47;89.36
62864;BME280;48954;59.950;11.014;2022-12-20T06:09:13;98383.86;;;-1.46;89.22
62864;BME280;48954;59.950;11.014;2022-12-20T06:11:40;98387.92;;;-1.45;89.32
62864;BME280;48954;59.950;11.014;2022-12-20T06:14:07;98384.17;;;-1.45;89.25
62864;BME280;48954;59.950;11.014;2022-12-20T06:16:34;98382.88;;;-1.44;89.33
62864;BME280;48954;59.950;11.014;2022-12-20T06:19:01;98379.09;;;-1.42;89.39
62864;BME280;48954;59.950;11.014;2022-12-20T06:21:27;98378.64;;;-1.42;89.22
62864;BME280;48954;59.950;11.014;2022-12-20T06:23:54;98385.16;;;-1.43;89.23
62864;BME280;48954;59.950;11.014;2022-12-20T06:26:20;98385.73;;;-1.44;89.21
62864;BME280;48954;59.950;11.014;2022-12-20T06:28:47;98392.94;;;-1.45;89.21
62864;BME280;48954;59.950;11.014;2022-12-20T06:31:14;98386.81;;;-1.46;89.28
62864;BME280;48954;59.950;11.014;2022-12-20T06:33:41;98386.36;;;-1.46;89.25
62864;BME280;48954;59.950;11.014;2022-12-20T06:36:07;98372.98;;;-1.45;89.27
62864;BME280;48954;59.950;11.014;2022-12-20T06:38:34;98375.45;;;-1.45;89.42
62864;BME280;48954;59.950;11.014;2022-12-20T06:41:01;98378.60;;;-1.43;89.35
62864;BME280;48954;59.950;11.014;2022-12-20T06:43:27;98382.70;;;-1.43;89.28
62864;BME280;48954;59.950;11.014;2022-12-20T06:45:54;98383.92;;;-1.45;89.36
62864;BME280;48954;59.950;11.014;2022-12-20T06:48:20;98388.27;;;-1.46;89.26
62864;BME280;48954;59.950;11.014;2022-12-20T06:50:48;98386.47;;;-1.45;89.36
62864;BME280;48954;59.950;11.014;2022-12-20T06:53:15;98390.20;;;-1.44;89.46
62864;BME280;48954;59.950;11.014;2022-12-20T06:55:42;98391.93;;;-1.43;89.26
62864;BME280;48954;59.950;11.014;2022-12-20T06:58:08;98402.29;;;-1.44;89.42
62864;BME280;48954;59.950;11.014;2022-12-20T07:00:34;98404.58;;;-1.45;89.39
62864;BME280;48954;59.950;11.014;2022-12-20T07:03:01;98404.73;;;-1.45;89.53
62864;BME280;48954;59.950;11.014;2022-12-20T07:05:27;98402.94;;;-1.44;89.51
62864;BME280;48954;59.950;11.014;2022-12-20T07:07:54;98405.88;;;-1.43;89.40
62864;BME280;48954;59.950;11.014;2022-12-20T07:10:21;98404.59;;;-1.42;89.51
62864;BME280;48954;59.950;11.014;2022-12-20T07:12:47;98409.86;;;-1.42;89.24
62864;BME280;48954;59.950;11.014;2022-12-20T07:15:14;98408.54;;;-1.40;89.51
62864;BME280;48954;59.950;11.014;2022-12-20T07:17:41;98408.33;;;-1.38;89.51
62864;BME280;48954;59.950;11.014;2022-12-20T07:20:07;98406.90;;;-1.37;89.43
62864;BME280;48954;59.950;11.014;2022-12-20T07:22:34;98401.89;;;-1.36;89.47
62864;BME280;48954;59.950;11.014;2022-12-20T07:25:00;98400.89;;;-1.35;89.54
62864;BME280;48954;59.950;11.014;2022-12-20T07:27:27;98409.61;;;-1.32;89.45
62864;BME280;48954;59.950;11.014;2022-12-20T07:29:53;98402.86;;;-1.32;89.37
62864;BME280;48954;59.950;11.014;2022-12-20T07:32:20;98404.04;;;-1.31;89.43
62864;BME280;48954;59.950;11.014;2022-12-20T07:34:46;98403.73;;;-1.29;89.39
62864;BME280;48954;59.950;11.014;2022-12-20T07:37:13;98400.51;;;-1.28;89.42
62864;BME280;48954;59.950;11.014;2022-12-20T07:39:39;98401.55;;;-1.27;89.37
62864;BME280;48954;59.950;11.014;2022-12-20T07:42:10;98396.80;;;-1.26;89.36
62864;BME280;48954;59.950;11.014;2022-12-20T07:44:37;98404.70;;;-1.25;89.48
62864;BME280;48954;59.950;11.014;2022-12-20T07:47:04;98408.02;;;-1.24;89.44
62864;BME280;48954;59.950;11.014;2022-12-20T07:49:31;98403.02;;;-1.23;89.42
62864;BME280;48954;59.950;11.014;2022-12-20T07:51:57;98402.94;;;-1.22;89.25
62864;BME280;48954;59.950;11.014;2022-12-20T07:54:28;98401.84;;;-1.21;89.25
62864;BME280;48954;59.950;11.014;2022-12-20T07:57:01;98403.69;;;-1.20;89.34
62864;BME280;48954;59.950;11.014;2022-12-20T07:59:43;98412.58;;;-1.17;89.34
62864;BME280;48954;59.950;11.014;2022-12-20T08:02:17;98418.98;;;-1.17;89.28
62864;BME280;48954;59.950;11.014;2022-12-20T08:04:45;98413.61;;;-1.16;89.34
62864;BME280;48954;59.950;11.014;2022-12-20T08:07:12;98419.98;;;-1.15;89.33
62864;BME280;48954;59.950;11.014;2022-12-20T08:09:40;98414.08;;;-1.14;89.36
62864;BME280;48954;59.950;11.014;2022-12-20T08:12:11;98414.81;;;-1.13;89.38
62864;BME280;48954;59.950;11.014;2022-12-20T08:14:39;98415.59;;;-1.12;89.38
62864;BME280;48954;59.950;11.014;2022-12-20T08:17:06;98408.70;;;-1.11;89.32
62864;BME280;48954;59.950;11.014;2022-12-20T08:19:32;98409.91;;;-1.10;89.17
62864;BME280;48954;59.950;11.014;2022-12-20T08:21:59;98410.52;;;-1.08;89.19
62864;BME280;48954;59.950;11.014;2022-12-20T08:24:25;98413.41;;;-1.07;89.30
62864;BME280;48954;59.950;11.014;2022-12-20T08:26:52;98417.19;;;-1.07;89.25
62864;BME280;48954;59.950;11.014;2022-12-20T08:29:19;98419.27;;;-1.06;89.22
62864;BME280;48954;59.950;11.014;2022-12-20T08:31:45;98421.92;;;-1.05;89.22
62864;BME280;48954;59.950;11.014;2022-12-20T08:34:12;98433.67;;;-1.04;89.17
62864;BME280;48954;59.950;11.014;2022-12-20T08:36:38;98432.61;;;-1.03;89.17
62864;BME280;48954;59.950;11.014;2022-12-20T08:39:05;98438.43;;;-1.03;89.25
62864;BME280;48954;59.950;11.014;2022-12-20T08:41:35;98435.52;;;-1.02;89.11
62864;BME280;48954;59.950;11.014;2022-12-20T08:44:03;98434.64;;;-1.01;89.19
62864;BME280;48954;59.950;11.014;2022-12-20T08:46:29;98434.49;;;-1.00;89.25
62864;BME280;48954;59.950;11.014;2022-12-20T08:48:55;98437.58;;;-0.98;89.33
62864;BME280;48954;59.950;11.014;2022-12-20T08:51:22;98439.11;;;-0.97;89.36
62864;BME280;48954;59.950;11.014;2022-12-20T08:53:48;98438.98;;;-0.95;89.19
62864;BME280;48954;59.950;11.014;2022-12-20T08:56:16;98438.55;;;-0.92;89.30
62864;BME280;48954;59.950;11.014;2022-12-20T08:58:43;98439.77;;;-0.90;89.22
62864;BME280;48954;59.950;11.014;2022-12-20T09:01:13;98442.67;;;-0.90;89.17
62864;BME280;48954;59.950;11.014;2022-12-20T09:03:40;98447.16;;;-0.89;89.13
62864;BME280;48954;59.950;11.014;2022-12-20T09:06:09;98447.30;;;-0.88;89.11
62864;BME280;48954;59.950;11.014;2022-12-20T09:08:37;98449.88;;;-0.87;89.04
62864;BME280;48954;59.950;11.014;2022-12-20T09:13:38;98460.46;;;-0.86;89.04
62864;BME280;48954;59.950;11.014;2022-12-20T09:16:06;98458.39;;;-0.85;89.16
62864;BME280;48954;59.950;11.014;2022-12-20T09:18:33;98465.33;;;-0.84;89.05
62864;BME280;48954;59.950;11.014;2022-12-20T09:21:03;98463.39;;;-0.82;89.12
62864;BME280;48954;59.950;11.014;2022-12-20T09:23:31;98460.63;;;-0.80;89.05
62864;BME280;48954;59.950;11.014;2022-12-20T09:26:07;98463.40;;;-0.79;89.18
62864;BME280;48954;59.950;11.014;2022-12-20T09:28:35;98462.27;;;-0.78;89.07
62864;BME280;48954;59.950;11.014;2022-12-20T09:31:05;98461.92;;;-0.77;89.08
62864;BME280;48954;59.950;11.014;2022-12-20T09:33:32;98473.01;;;-0.76;89.16
62864;BME280;48954;59.950;11.014;2022-12-20T09:36:00;98465.67;;;-0.74;89.14
62864;BME280;48954;59.950;11.014;2022-12-20T09:38:27;98462.38;;;-0.72;89.13
62864;BME280;48954;59.950;11.014;2022-12-20T09:41:02;98460.14;;;-0.69;89.15
62864;BME280;48954;59.950;11.014;2022-12-20T09:43:31;98448.03;;;-0.65;89.18
62864;BME280;48954;59.950;11.014;2022-12-20T09:46:00;98445.20;;;-0.61;89.06
62864;BME280;48954;59.950;11.014;2022-12-20T09:48:30;98444.22;;;-0.57;89.19
62864;BME280;48954;59.950;11.014;2022-12-20T09:53:51;98448.17;;;-0.51;89.13
62864;BME280;48954;59.950;11.014;2022-12-20T09:56:28;98448.85;;;-0.47;89.09
62864;BME280;48954;59.950;11.014;2022-12-20T09:59:05;98448.98;;;-0.44;89.03
62864;BME280;48954;59.950;11.014;2022-12-20T10:01:36;98448.80;;;-0.43;89.11
62864;BME280;48954;59.950;11.014;2022-12-20T10:04:06;98454.73;;;-0.42;89.22
62864;BME280;48954;59.950;11.014;2022-12-20T10:09:42;98451.92;;;-0.39;89.03
62864;BME280;48954;59.950;11.014;2022-12-20T10:12:24;98456.32;;;-0.39;89.17
62864;BME280;48954;59.950;11.014;2022-12-20T10:15:13;98447.95;;;-0.38;89.38
62864;BME280;48954;59.950;11.014;2022-12-20T10:17:53;98447.38;;;-0.37;89.25
62864;BME280;48954;59.950;11.014;2022-12-20T10:20:45;98445.56;;;-0.36;89.43
62864;BME280;48954;59.950;11.014;2022-12-20T10:23:24;98443.34;;;-0.35;89.51
62864;BME280;48954;59.950;11.014;2022-12-20T10:25:55;98443.82;;;-0.35;89.56
62864;BME280;48954;59.950;11.014;2022-12-20T10:28:29;98445.35;;;-0.33;89.58
62864;BME280;48954;59.950;11.014;2022-12-20T10:31:16;98449.03;;;-0.32;89.60
62864;BME280;48954;59.950;11.014;2022-12-20T10:33:43;98444.11;;;-0.30;89.67
62864;BME280;48954;59.950;11.014;2022-12-20T10:36:26;98442.88;;;-0.28;89.73
62864;BME280;48954;59.950;11.014;2022-12-20T10:38:55;98441.10;;;-0.27;89.78
62864;BME280;48954;59.950;11.014;2022-12-20T10:41:24;98444.73;;;-0.24;89.92
62864;BME280;48954;59.950;11.014;2022-12-20T10:43:55;98437.38;;;-0.23;89.91
62864;BME280;48954;59.950;11.014;2022-12-20T10:46:34;98434.74;;;-0.22;89.83
62864;BME280;48954;59.950;11.014;2022-12-20T10:49:30;98436.08;;;-0.20;89.77
62864;BME280;48954;59.950;11.014;2022-12-20T10:54:39;98451.06;;;-0.16;90.08
62864;BME280;48954;59.950;11.014;2022-12-20T10:59:44;98447.95;;;-0.13;90.04
62864;BME280;48954;59.950;11.014;2022-12-20T11:02:30;98447.80;;;-0.13;90.09
62864;BME280;48954;59.950;11.014;2022-12-20T11:07:28;98447.19;;;-0.11;90.18
62864;BME280;48954;59.950;11.014;2022-12-20T11:09:57;98446.30;;;-0.10;90.16
62864;BME280;48954;59.950;11.014;2022-12-20T11:12:24;98440.20;;;-0.08;89.98
62864;BME280;48954;59.950;11.014;2022-12-20T11:15:07;98442.23;;;-0.08;90.15
62864;BME280;48954;59.950;11.014;2022-12-20T11:17:42;98441.97;;;-0.06;90.25
62864;BME280;48954;59.950;11.014;2022-12-20T11:30:02;98453.23;;;-0.04;90.30
62864;BME280;48954;59.950;11.014;2022-12-20T11:32:54;98453.55;;;-0.03;90.12
62864;BME280;48954;59.950;11.014;2022-12-20T11:35:30;98450.63;;;-0.03;90.21
62864;BME280;48954;59.950;11.014;2022-12-20T11:40:42;98443.21;;;-0.03;90.24
62864;BME280;48954;59.950;11.014;2022-12-20T11:43:42;98435.92;;;-0.04;90.33
62864;BME280;48954;59.950;11.014;2022-12-20T11:46:32;98416.00;;;-0.04;90.50
62864;BME280;48954;59.950;11.014;2022-12-20T11:49:30;98424.27;;;-0.04;90.31
62864;BME280;48954;59.950;11.014;2022-12-20T11:52:03;98429.73;;;-0.06;90.32
62864;BME280;48954;59.950;11.014;2022-12-20T11:54:40;98411.03;;;-0.06;90.46
62864;BME280;48954;59.950;11.014;2022-12-20T11:57:58;98406.27;;;-0.05;90.53
62864;BME280;48954;59.950;11.014;2022-12-20T12:00:05;98413.55;;;-0.05;90.58
62864;BME280;48954;59.950;11.014;2022-12-20T12:02:58;98412.27;;;-0.04;90.71
62864;BME280;48954;59.950;11.014;2022-12-20T12:05:27;98408.27;;;-0.02;90.59
62864;BME280;48954;59.950;11.014;2022-12-20T12:08:02;98407.27;;;-0.00;90.56
62864;BME280;48954;59.950;11.014;2022-12-20T12:10:35;98409.98;;;0.01;90.81
62864;BME280;48954;59.950;11.014;2022-12-20T12:15:51;98412.36;;;0.03;90.56
62864;BME280;48954;59.950;11.014;2022-12-20T12:18:22;98412.98;;;0.02;90.45
62864;BME280;48954;59.950;11.014;2022-12-20T12:24:06;98409.95;;;0.04;90.68
62864;BME280;48954;59.950;11.014;2022-12-20T12:26:38;98409.43;;;0.06;90.71
62864;BME280;48954;59.950;11.014;2022-12-20T12:29:19;98409.05;;;0.06;90.56
62864;BME280;48954;59.950;11.014;2022-12-20T12:32:07;98409.60;;;0.08;90.72
62864;BME280;48954;59.950;11.014;2022-12-20T12:34:56;98408.04;;;0.09;90.67
62864;BME280;48954;59.950;11.014;2022-12-20T12:37:53;98409.34;;;0.11;90.65
62864;BME280;48954;59.950;11.014;2022-12-20T12:43:06;98402.12;;;0.16;90.61
62864;BME280;48954;59.950;11.014;2022-12-20T12:46:00;98399.44;;;0.18;90.72
62864;BME280;48954;59.950;11.014;2022-12-20T12:48:40;98395.75;;;0.20;90.51
62864;BME280;48954;59.950;11.014;2022-12-20T12:51:10;98398.86;;;0.23;90.46
62864;BME280;48954;59.950;11.014;2022-12-20T12:54:11;98395.52;;;0.24;90.47
62864;BME280;48954;59.950;11.014;2022-12-20T12:57:05;98392.11;;;0.26;90.39
62864;BME280;48954;59.950;11.014;2022-12-20T12:59:42;98389.31;;;0.28;90.48
62864;BME280;48954;59.950;11.014;2022-12-20T13:02:26;98388.07;;;0.29;90.37
62864;BME280;48954;59.950;11.014;2022-12-20T13:07:52;98384.20;;;0.33;90.37
62864;BME280;48954;59.950;11.014;2022-12-20T13:13:20;98376.83;;;0.35;90.18
62864;BME280;48954;59.950;11.014;2022-12-20T13:16:26;98380.61;;;0.37;90.41
62864;BME280;48954;59.950;11.014;2022-12-20T13:20:21;98371.39;;;0.39;90.25
62864;BME280;48954;59.950;11.014;2022-12-20T13:24:25;98372.48;;;0.40;90.19
62864;BME280;48954;59.950;11.014;2022-12-20T13:27:27;98369.61;;;0.39;90.19
62864;BME280;48954;59.950;11.014;2022-12-20T13:33:23;98363.39;;;0.38;90.05
62864;BME280;48954;59.950;11.014;2022-12-20T13:36:57;98356.39;;;0.37;89.96
62864;BME280;48954;59.950;11.014;2022-12-20T13:43:56;98346.64;;;0.34;89.88
62864;BME280;48954;59.950;11.014;2022-12-20T13:49:49;98342.31;;;0.33;90.00
62864;BME280;48954;59.950;11.014;2022-12-20T13:52:50;98343.48;;;0.29;89.84
62864;BME280;48954;59.950;11.014;2022-12-20T13:56:30;98341.88;;;0.28;90.00
62864;BME280;48954;59.950;11.014;2022-12-20T13:59:38;98342.73;;;0.28;90.03
62864;BME280;48954;59.950;11.014;2022-12-20T14:08:20;98319.48;;;0.28;90.13
62864;BME280;48954;59.950;11.014;2022-12-20T14:11:17;98316.05;;;0.29;90.09
62864;BME280;48954;59.950;11.014;2022-12-20T14:28:45;98295.33;;;0.19;90.04
62864;BME280;48954;59.950;11.014;2022-12-20T14:32:21;98296.01;;;0.17;89.89
62864;BME280;48954;59.950;11.014;2022-12-20T14:35:34;98291.17;;;0.14;89.85
62864;BME280;48954;59.950;11.014;2022-12-20T14:38:35;98292.17;;;0.13;90.09
62864;BME280;48954;59.950;11.014;2022-12-20T14:42:01;98288.98;;;0.12;90.01
62864;BME280;48954;59.950;11.014;2022-12-20T14:45:04;98286.64;;;0.10;89.84
62864;BME280;48954;59.950;11.014;2022-12-20T14:47:35;98287.37;;;0.11;89.91
62864;BME280;48954;59.950;11.014;2022-12-20T14:50:29;98287.56;;;0.10;89.93
62864;BME280;48954;59.950;11.014;2022-12-20T14:53:19;98289.83;;;0.09;90.06
62864;BME280;48954;59.950;11.014;2022-12-20T14:55:48;98290.44;;;0.06;90.10